createdAt,value
2022-12-24T00:01:13.252Z,7.78
2022-12-24T00:04:18.062Z,6.65
2022-12-24T00:07:20.899Z,6.68
2022-12-24T00:10:25.437Z,5.78
2022-12-24T00:13:57.452Z,8.20
2022-12-24T00:17:05.551Z,9.35
2022-12-24T00:20:52.385Z,7.00
2022-12-24T00:24:02.701Z,8.15
2022-12-24T00:27:18.823Z,7.53
2022-12-24T00:30:27.822Z,9.15
2022-12-24T00:33:49.141Z,7.72
2022-12-24T00:37:00.498Z,8.25
2022-12-24T00:40:19.566Z,6.93
2022-12-24T00:43:24.571Z,7.35
2022-12-24T00:46:31.905Z,7.72
2022-12-24T00:49:34.245Z,7.53
2022-12-24T00:52:36.152Z,6.45
2022-12-24T00:55:39.093Z,7.60
2022-12-24T00:58:41.216Z,7.25
2022-12-24T01:01:43.420Z,6.05
2022-12-24T01:05:04.830Z,6.97
2022-12-24T01:08:06.819Z,5.65
2022-12-24T01:11:10.977Z,5.68
2022-12-24T01:14:12.976Z,6.00
2022-12-24T01:17:15.289Z,6.05
2022-12-24T01:20:17.531Z,6.93
2022-12-24T01:23:19.889Z,7.45
2022-12-24T01:26:22.107Z,7.10
2022-12-24T01:29:24.532Z,6.55
2022-12-24T01:32:26.813Z,6.18
2022-12-24T01:35:28.587Z,6.53
2022-12-24T01:38:30.843Z,6.63
2022-12-24T01:41:52.465Z,7.20
2022-12-24T01:44:55.661Z,6.03
2022-12-24T01:47:57.900Z,5.22
2022-12-24T01:51:11.496Z,4.43
2022-12-24T01:54:22.812Z,3.80
2022-12-24T01:57:31.957Z,3.45
2022-12-24T02:00:35.212Z,3.63
2022-12-24T02:03:37.324Z,3.60
2022-12-24T02:06:39.414Z,3.60
2022-12-24T02:09:41.496Z,3.35
2022-12-24T02:12:45.898Z,2.65
2022-12-24T02:16:12.354Z,2.88
2022-12-24T02:20:00.075Z,3.05
2022-12-24T02:23:49.869Z,3.50
2022-12-24T02:27:28.717Z,2.58
2022-12-24T02:30:49.001Z,2.78
2022-12-24T02:34:09.141Z,2.67
2022-12-24T02:37:25.358Z,2.23
2022-12-24T02:40:38.207Z,2.40
2022-12-24T02:43:44.563Z,2.13
2022-12-24T02:46:48.098Z,2.60
2022-12-24T02:49:50.004Z,2.00
2022-12-24T02:52:51.953Z,2.53
2022-12-24T02:56:23.891Z,2.78
2022-12-24T02:59:44.155Z,2.60
2022-12-24T03:03:09.213Z,3.10
2022-12-24T03:06:29.204Z,3.72
2022-12-24T03:09:39.472Z,2.47
2022-12-24T03:12:55.814Z,2.72
2022-12-24T03:15:57.988Z,3.00
2022-12-24T03:19:01.026Z,2.30
2022-12-24T03:22:07.703Z,2.40
2022-12-24T03:25:09.642Z,3.80
2022-12-24T03:28:14.960Z,2.42
2022-12-24T03:31:18.610Z,2.30
2022-12-24T03:34:20.830Z,2.63
2022-12-24T03:37:23.013Z,2.33
2022-12-24T03:40:24.851Z,2.70
2022-12-24T03:43:26.661Z,2.92
2022-12-24T03:46:28.847Z,2.92
2022-12-24T03:49:31.971Z,2.58
2022-12-24T03:52:34.007Z,2.78
2022-12-24T03:55:35.900Z,3.47
2022-12-24T03:58:37.925Z,2.90
2022-12-24T04:01:39.919Z,2.58
2022-12-24T04:04:42.018Z,2.80
2022-12-24T04:07:44.537Z,3.15
2022-12-24T04:10:46.329Z,2.67
2022-12-24T04:13:48.254Z,2.60
2022-12-24T04:16:49.961Z,2.63
2022-12-24T04:19:52.180Z,2.92
2022-12-24T04:22:54.416Z,2.60
2022-12-24T04:25:56.289Z,2.85
2022-12-24T04:28:58.261Z,2.67
2022-12-24T04:32:00.289Z,2.75
2022-12-24T04:35:02.424Z,2.20
2022-12-24T04:38:04.307Z,3.08
2022-12-24T04:41:09.194Z,2.85
2022-12-24T04:44:11.276Z,3.13
2022-12-24T04:47:13.398Z,2.25
2022-12-24T04:50:15.284Z,2.72
2022-12-24T04:53:17.005Z,2.85
2022-12-24T04:56:21.918Z,3.40
2022-12-24T04:59:23.973Z,1.90
2022-12-24T05:02:26.027Z,2.15
2022-12-24T05:05:28.111Z,2.40
2022-12-24T05:08:30.106Z,2.67
2022-12-24T05:11:31.940Z,2.20
2022-12-24T05:14:33.594Z,2.58
2022-12-24T05:17:35.482Z,2.65
2022-12-24T05:20:37.263Z,2.90
2022-12-24T05:23:57.861Z,2.58
2022-12-24T05:27:00.008Z,2.92
2022-12-24T05:30:01.876Z,3.30
2022-12-24T05:33:03.725Z,4.70
2022-12-24T05:36:06.019Z,3.03
2022-12-24T05:39:13.438Z,3.65
2022-12-24T05:42:17.148Z,3.83
2022-12-24T05:45:18.895Z,4.15
2022-12-24T05:48:20.522Z,4.10
2022-12-24T05:51:23.688Z,5.13
2022-12-24T05:54:25.771Z,4.07
2022-12-24T05:57:27.633Z,4.85
2022-12-24T06:00:29.262Z,4.00
2022-12-24T06:03:31.699Z,4.38
2022-12-24T06:06:33.400Z,4.40
2022-12-24T06:09:35.171Z,3.88
2022-12-24T06:12:36.918Z,4.72
2022-12-24T06:15:39.533Z,4.45
2022-12-24T06:18:41.635Z,4.78
2022-12-24T06:21:43.726Z,4.28
2022-12-24T06:24:45.399Z,4.35
2022-12-24T06:27:47.072Z,4.43
2022-12-24T06:30:50.546Z,4.68
2022-12-24T06:33:53.116Z,4.28
2022-12-24T06:36:54.988Z,4.22
2022-12-24T06:39:56.944Z,4.38
2022-12-24T06:42:58.493Z,4.22
2022-12-24T06:46:01.554Z,4.40
2022-12-24T06:49:03.203Z,4.18
2022-12-24T06:52:04.998Z,4.18
2022-12-24T06:55:07.212Z,4.20
2022-12-24T06:58:08.814Z,4.53
2022-12-24T07:01:12.954Z,4.25
2022-12-24T07:04:20.104Z,4.35
2022-12-24T07:07:22.553Z,4.55
2022-12-24T07:10:24.355Z,3.83
2022-12-24T07:13:26.316Z,4.00
2022-12-24T07:16:28.454Z,4.07
2022-12-24T07:19:30.436Z,3.08
2022-12-24T07:22:32.097Z,3.25
2022-12-24T07:25:34.032Z,4.18
2022-12-24T07:28:36.230Z,3.47
2022-12-24T07:31:38.291Z,3.85
2022-12-24T07:34:40.085Z,3.65
2022-12-24T07:37:44.064Z,3.83
2022-12-24T07:40:46.279Z,4.30
2022-12-24T07:43:48.359Z,3.63
2022-12-24T07:46:50.173Z,3.50
2022-12-24T07:49:51.834Z,2.72
2022-12-24T07:52:53.608Z,3.28
2022-12-24T07:55:56.133Z,4.38
2022-12-24T07:58:58.405Z,2.92
2022-12-24T08:02:00.321Z,3.05
2022-12-24T08:05:02.335Z,3.10
2022-12-24T08:08:04.083Z,3.10
2022-12-24T08:11:07.657Z,3.30
2022-12-24T08:14:09.425Z,3.60
2022-12-24T08:17:11.136Z,4.05
2022-12-24T08:20:12.996Z,4.15
2022-12-24T08:23:15.098Z,3.83
2022-12-24T08:26:16.881Z,4.13
2022-12-24T08:29:18.849Z,4.75
2022-12-24T08:32:20.647Z,4.30
2022-12-24T08:35:22.246Z,4.88
2022-12-24T08:38:24.548Z,4.10
2022-12-24T08:41:26.211Z,5.13
2022-12-24T08:44:28.265Z,4.85
2022-12-24T08:47:30.319Z,4.65
2022-12-24T08:50:31.969Z,5.80
2022-12-24T08:53:33.922Z,4.82
2022-12-24T08:56:35.987Z,5.10
2022-12-24T08:59:41.013Z,5.20
2022-12-24T09:02:44.315Z,6.00
2022-12-24T09:05:47.003Z,6.10
2022-12-24T09:08:48.857Z,5.47
2022-12-24T09:11:50.842Z,6.53
2022-12-24T09:14:59.547Z,7.95
2022-12-24T09:18:05.261Z,6.85
2022-12-24T09:21:11.362Z,6.65
2022-12-24T09:24:13.113Z,6.18
2022-12-24T09:27:14.918Z,6.47
2022-12-24T09:30:16.728Z,6.47
2022-12-24T09:33:18.433Z,5.60
2022-12-24T09:36:20.995Z,6.32
2022-12-24T09:39:22.651Z,5.25
2022-12-24T09:42:51.725Z,4.95
2022-12-24T09:46:17.082Z,5.55
2022-12-24T09:49:23.507Z,4.78
2022-12-24T09:52:43.386Z,4.82
2022-12-24T09:55:50.698Z,5.00
2022-12-24T09:59:05.359Z,5.53
2022-12-24T10:02:12.071Z,5.13
2022-12-24T10:05:15.969Z,5.60
2022-12-24T10:08:37.121Z,4.07
2022-12-24T10:12:20.587Z,5.22
2022-12-24T10:15:36.662Z,5.43
2022-12-24T10:18:59.270Z,4.28
2022-12-24T10:22:17.905Z,4.72
2022-12-24T10:25:51.967Z,4.65
2022-12-24T10:28:59.734Z,4.78
2022-12-24T10:32:17.716Z,5.32
2022-12-24T10:35:35.043Z,5.28
2022-12-24T10:38:37.110Z,4.30
2022-12-24T10:41:42.123Z,4.40
2022-12-24T10:44:52.172Z,4.55
2022-12-24T10:47:59.224Z,3.58
2022-12-24T10:51:03.702Z,3.13
2022-12-24T10:54:24.474Z,3.00
2022-12-24T10:57:28.693Z,2.92
2022-12-24T11:00:35.939Z,3.65
2022-12-24T11:03:39.755Z,3.08
2022-12-24T11:07:06.193Z,3.63
2022-12-24T11:10:08.564Z,3.03
2022-12-24T11:13:39.530Z,3.53
2022-12-24T11:16:53.837Z,3.50
2022-12-24T11:19:55.773Z,3.50
2022-12-24T11:22:58.408Z,3.53
2022-12-24T11:26:00.640Z,3.67
2022-12-24T11:29:24.211Z,3.50
2022-12-24T11:32:26.400Z,3.28
2022-12-24T11:35:30.301Z,3.20
2022-12-24T11:38:33.995Z,2.85
2022-12-24T11:41:39.850Z,2.95
2022-12-24T11:44:50.240Z,3.30
2022-12-24T11:47:53.658Z,3.30
2022-12-24T11:51:04.483Z,3.70
2022-12-24T11:54:37.257Z,2.90
2022-12-24T11:58:12.292Z,2.33
2022-12-24T12:01:35.478Z,2.33
2022-12-24T12:04:40.385Z,2.10
2022-12-24T12:07:48.253Z,2.13
2022-12-24T12:10:52.890Z,1.98
2022-12-24T12:13:58.815Z,2.08
2022-12-24T12:17:04.239Z,2.33
2022-12-24T12:20:42.935Z,2.47
2022-12-24T12:23:51.506Z,2.65
2022-12-24T12:27:05.781Z,2.70
2022-12-24T12:30:16.231Z,2.97
2022-12-24T12:33:32.542Z,3.42
2022-12-24T12:36:43.185Z,3.35
2022-12-24T12:39:45.180Z,3.28
2022-12-24T12:42:58.969Z,3.95
2022-12-24T12:46:31.338Z,4.78
2022-12-24T12:49:42.025Z,4.38
2022-12-24T12:52:54.836Z,4.60
2022-12-24T12:56:21.565Z,3.70
2022-12-24T12:59:32.275Z,5.65
2022-12-24T13:02:52.752Z,4.45
2022-12-24T13:06:24.766Z,5.03
2022-12-24T13:09:46.259Z,4.50
2022-12-24T13:13:16.904Z,4.88
2022-12-24T13:16:57.241Z,4.10
2022-12-24T13:20:12.132Z,4.97
2022-12-24T13:23:21.721Z,4.50
2022-12-24T13:26:24.165Z,4.93
2022-12-24T13:29:42.034Z,4.50
2022-12-24T13:32:54.472Z,3.97
2022-12-24T13:36:07.091Z,4.63
2022-12-24T13:39:20.274Z,3.78
2022-12-24T13:42:59.558Z,4.50
2022-12-24T13:46:01.268Z,4.13
2022-12-24T13:49:22.155Z,4.68
2022-12-24T13:52:27.512Z,1.25
2022-12-24T13:55:30.321Z,0.77
2022-12-24T13:58:33.958Z,0.70
2022-12-24T14:01:40.204Z,1.00
2022-12-24T14:04:42.663Z,0.90
2022-12-24T14:07:51.532Z,0.80
2022-12-24T14:11:22.361Z,0.90
2022-12-24T14:14:31.844Z,1.33
2022-12-24T14:17:36.173Z,0.90
2022-12-24T14:20:38.315Z,1.25
2022-12-24T14:24:18.009Z,0.98
2022-12-24T14:27:25.513Z,1.13
2022-12-24T14:30:29.748Z,1.52
2022-12-24T14:33:33.127Z,1.20
2022-12-24T14:36:36.714Z,1.48
2022-12-24T14:39:43.335Z,1.60
2022-12-24T14:43:03.730Z,2.45
2022-12-24T14:46:45.894Z,4.10
2022-12-24T14:49:51.728Z,5.07
2022-12-24T14:53:31.111Z,4.40
2022-12-24T14:56:33.391Z,3.88
2022-12-24T14:59:53.015Z,4.13
2022-12-24T15:02:54.972Z,4.22
2022-12-24T15:06:02.097Z,5.47
2022-12-24T15:09:04.373Z,4.20
2022-12-24T15:12:06.649Z,4.35
2022-12-24T15:15:20.321Z,4.65
2022-12-24T15:18:26.404Z,4.20
2022-12-24T15:21:41.287Z,4.45
2022-12-24T15:24:49.303Z,3.90
2022-12-24T15:27:51.380Z,4.63
2022-12-24T15:31:07.766Z,4.57
2022-12-24T15:34:30.442Z,4.78
2022-12-24T15:37:39.441Z,4.30
2022-12-24T15:40:41.152Z,3.70
2022-12-24T15:43:45.397Z,3.90
2022-12-24T15:46:47.200Z,4.40
2022-12-24T15:49:52.325Z,5.03
2022-12-24T15:53:20.944Z,4.80
2022-12-24T15:56:34.046Z,4.10
2022-12-24T15:59:36.352Z,4.30
2022-12-24T16:02:47.089Z,4.60
2022-12-24T16:06:00.553Z,4.10
2022-12-24T16:09:42.590Z,4.68
2022-12-24T16:12:44.255Z,3.90
2022-12-24T16:15:52.277Z,5.13
2022-12-24T16:18:57.019Z,5.03
2022-12-24T16:22:21.369Z,4.20
2022-12-24T16:25:26.350Z,4.38
2022-12-24T16:28:28.416Z,4.95
2022-12-24T16:31:43.537Z,4.63
2022-12-24T16:34:45.425Z,4.20
2022-12-24T16:37:47.288Z,4.32
2022-12-24T16:40:49.119Z,4.57
2022-12-24T16:43:50.845Z,4.32
2022-12-24T16:46:54.135Z,4.40
2022-12-24T16:49:57.099Z,4.47
2022-12-24T16:52:58.861Z,4.35
2022-12-24T16:56:00.735Z,4.55
2022-12-24T16:59:02.332Z,4.60
2022-12-24T17:02:10.880Z,5.28
2022-12-24T17:05:17.220Z,4.45
2022-12-24T17:08:18.855Z,4.82
2022-12-24T17:11:23.646Z,4.40
2022-12-24T17:14:25.379Z,4.60
2022-12-24T17:17:29.583Z,4.68
2022-12-24T17:20:31.194Z,4.82
2022-12-24T17:23:33.296Z,4.60
2022-12-24T17:26:35.598Z,4.15
2022-12-24T17:29:37.464Z,4.28
2022-12-24T17:32:39.672Z,4.30
2022-12-24T17:35:42.950Z,4.28
2022-12-24T17:38:45.019Z,4.45
2022-12-24T17:41:47.340Z,4.60
2022-12-24T17:44:48.944Z,4.60
2022-12-24T17:47:50.753Z,4.30
2022-12-24T17:50:52.703Z,4.00
2022-12-24T17:53:54.496Z,4.75
2022-12-24T17:56:56.435Z,4.20
2022-12-24T17:59:58.226Z,4.63
2022-12-24T18:03:00.226Z,4.38
2022-12-24T18:06:06.379Z,4.03
2022-12-24T18:09:08.297Z,4.85
2022-12-24T18:12:10.638Z,4.70
2022-12-24T18:15:12.334Z,5.43
2022-12-24T18:18:14.038Z,4.85
2022-12-24T18:21:18.162Z,5.28
2022-12-24T18:24:20.024Z,7.03
2022-12-24T18:27:21.720Z,5.57
2022-12-24T18:30:27.743Z,4.32
2022-12-24T18:33:30.668Z,4.90
2022-12-24T18:36:33.003Z,4.18
2022-12-24T18:39:34.785Z,4.28
2022-12-24T18:42:36.853Z,5.28
2022-12-24T18:45:43.475Z,5.55
2022-12-24T18:48:45.462Z,6.07
2022-12-24T18:51:47.230Z,6.20
2022-12-24T18:54:50.736Z,5.68
2022-12-24T18:57:52.519Z,6.68
2022-12-24T19:00:54.396Z,6.18
2022-12-24T19:03:57.482Z,7.15
2022-12-24T19:07:00.538Z,6.35
2022-12-24T19:10:02.175Z,7.10
2022-12-24T19:13:03.988Z,7.53
2022-12-24T19:16:07.507Z,6.10
2022-12-24T19:19:09.611Z,7.40
2022-12-24T19:22:11.224Z,6.32
2022-12-24T19:25:12.858Z,6.15
2022-12-24T19:28:14.748Z,7.38
2022-12-24T19:31:19.341Z,13.32
2022-12-24T19:34:21.018Z,9.20
2022-12-24T19:37:23.768Z,8.65
2022-12-24T19:40:26.213Z,7.88
2022-12-24T19:43:28.035Z,6.95
2022-12-24T19:46:32.627Z,7.20
2022-12-24T19:49:34.444Z,6.82
2022-12-24T19:52:36.253Z,6.82
2022-12-24T19:55:38.091Z,7.07
2022-12-24T19:58:39.765Z,6.88
2022-12-24T20:01:41.489Z,6.53
2022-12-24T20:04:43.276Z,6.60
2022-12-24T20:07:45.309Z,6.38
2022-12-24T20:10:47.008Z,6.72
2022-12-24T20:13:48.945Z,6.75
2022-12-24T20:16:50.710Z,7.05
2022-12-24T20:19:52.640Z,7.28
2022-12-24T20:22:55.487Z,6.47
2022-12-24T20:26:05.842Z,8.13
2022-12-24T20:29:09.653Z,8.18
2022-12-24T20:32:11.464Z,7.68
2022-12-24T20:35:13.616Z,6.43
2022-12-24T20:38:15.683Z,7.43
2022-12-24T20:41:20.293Z,7.20
2022-12-24T20:44:22.168Z,6.25
2022-12-24T20:47:24.154Z,7.18
2022-12-24T20:50:27.238Z,7.25
2022-12-24T20:53:28.976Z,6.32
2022-12-24T20:56:31.048Z,7.95
2022-12-24T20:59:32.858Z,7.05
2022-12-24T21:02:34.890Z,6.90
2022-12-24T21:05:36.893Z,6.47
2022-12-24T21:08:38.752Z,7.20
2022-12-24T21:11:49.302Z,7.57
2022-12-24T21:14:50.913Z,7.05
2022-12-24T21:17:53.785Z,7.30
2022-12-24T21:20:55.396Z,7.32
2022-12-24T21:23:58.473Z,8.07
2022-12-24T21:27:00.151Z,7.38
2022-12-24T21:30:04.762Z,7.50
2022-12-24T21:33:06.537Z,6.68
2022-12-24T21:36:09.906Z,7.22
2022-12-24T21:39:11.746Z,6.55
2022-12-24T21:42:14.256Z,7.35
2022-12-24T21:45:16.674Z,7.32
2022-12-24T21:48:36.660Z,7.15
2022-12-24T21:51:39.022Z,6.20
2022-12-24T21:54:40.815Z,6.80
2022-12-24T21:57:54.659Z,8.45
2022-12-24T22:00:56.460Z,8.70
2022-12-24T22:03:58.501Z,8.30
2022-12-24T22:07:19.635Z,7.82
2022-12-24T22:10:39.893Z,7.93
2022-12-24T22:13:41.573Z,7.50
2022-12-24T22:16:44.048Z,7.40
2022-12-24T22:19:45.766Z,7.63
2022-12-24T22:22:48.902Z,8.05
2022-12-24T22:25:50.670Z,7.82
2022-12-24T22:28:52.217Z,7.65
2022-12-24T22:31:54.046Z,7.97
2022-12-24T22:34:55.761Z,7.53
2022-12-24T22:38:00.438Z,7.05
2022-12-24T22:41:09.027Z,7.63
2022-12-24T22:44:10.836Z,7.68
2022-12-24T22:47:12.477Z,7.18
2022-12-24T22:50:14.955Z,7.82
2022-12-24T22:53:16.486Z,8.23
2022-12-24T22:56:21.847Z,8.13
2022-12-24T22:59:23.477Z,7.70
2022-12-24T23:02:28.725Z,7.90
2022-12-24T23:05:30.885Z,7.00
2022-12-24T23:08:36.539Z,7.30
2022-12-24T23:11:40.230Z,8.23
2022-12-24T23:14:57.332Z,6.82
2022-12-24T23:17:59.071Z,6.32
2022-12-24T23:21:05.829Z,8.05
2022-12-24T23:24:10.236Z,5.85
2022-12-24T23:27:12.060Z,7.18
2022-12-24T23:30:14.160Z,6.28
2022-12-24T23:33:16.091Z,6.13
2022-12-24T23:36:17.955Z,6.85
2022-12-24T23:39:19.703Z,6.32
2022-12-24T23:42:21.350Z,6.60
2022-12-24T23:45:23.413Z,7.22
2022-12-24T23:48:25.991Z,6.15
2022-12-24T23:51:28.418Z,7.05
2022-12-24T23:54:30.199Z,6.65
2022-12-24T23:57:31.963Z,6.22
